METAR Data
IDs: Format: Raw Decoded Include TAF

Data at: 1124 UTC 26 Sep 2018

KAKQ 261104Z AUTO 00000KT 1/4SM FG VV002 23/23 A3004 RMK AO2 T02330228
KAKQ 261054Z AUTO 28003KT 1/2SM FG VV002 23/23 A3004 RMK AO2 SLP171 T02330228
KAKQ 261047Z AUTO 00000KT 1/2SM FG VV002 23/23 A3003 RMK AO2 T02330228
KAKQ 261008Z AUTO 00000KT 1/4SM FG VV002 23/23 A3003 RMK AO2 T02330228
KAKQ 260954Z AUTO 00000KT 1/2SM FG VV002 23/23 A3003 RMK AO2 SLP168 T02330228
KAKQ 260854Z AUTO 00000KT 1/4SM FG VV002 23/23 A3004 RMK AO2 SLP169 T02330228 58014
KAKQ 260754Z AUTO 00000KT 1/4SM FG VV002 23/23 A3005 RMK AO2 SLP175 T02330228
KAKQ 260745Z AUTO 00000KT 1/2SM FG VV002 24/23 A3006 RMK AO2 T02390233
KAKQ 260733Z AUTO 00000KT 1 1/2SM BR OVC002 24/23 A3006 RMK AO2 T02390228
KAKQ 260721Z AUTO 00000KT 1/2SM FG VV002 24/23 A3007 RMK AO2 T02390233
KAKQ 260713Z AUTO 00000KT 1SM BR VV002 24/23 A3007 RMK AO2 T02390233
KAKQ 260654Z AUTO 00000KT 3/4SM BR VV002 24/23 A3007 RMK AO2 SLP179 T02390233
KAKQ 260554Z AUTO 00000KT 3/4SM BR VV002 24/23 A3008 RMK AO2 SLP183 T02390233 10250 20233 58017
KAKQ 260531Z AUTO 00000KT 1/2SM FG VV002 24/23 A3008 RMK AO2 T02390233
KAKQ 260519Z AUTO 00000KT 1 1/4SM BR OVC002 24/23 A3008 RMK AO2 T02390233
KAKQ 260511Z AUTO 00000KT 2SM BR OVC002 24/23 A3008 RMK AO2 T02440233
KAKQ 260454Z AUTO 00000KT 1 1/2SM BR OVC002 24/23 A3009 RMK AO2 SLP187 T02440233 403170211
KAKQ 260408Z AUTO 00000KT 1 3/4SM BR OVC002 24/23 A3011 RMK AO2 T02440233
KAKQ 260354Z AUTO 00000KT 4SM BR OVC004 24/23 A3012 RMK AO2 SLP196 T02440233
KAKQ 260328Z AUTO 00000KT 9SM BKN005 24/23 A3011 RMK AO2 T02390233
KAKQ 260254Z AUTO 00000KT 9SM SCT005 23/22 A3013 RMK AO2 SLP200 T02330222 55001
KAKQ 260233Z AUTO 00000KT 9SM BKN007 24/23 A3012 RMK AO2 T02390228
KAKQ 260224Z AUTO 00000KT 8SM SCT007 23/23 A3012 RMK AO2 T02330228
KAKQ 260154Z AUTO 00000KT 10SM FEW019 FEW033 24/23 A3012 RMK AO2 SLP197 T02440233
KAKQ 260119Z AUTO 00000KT 10SM FEW010 SCT027 BKN034 24/23 A3012 RMK AO2 T02440233
KAKQ 260054Z AUTO 00000KT 10SM SCT015 BKN021 BKN026 24/23 A3013 RMK AO2 SLP202 T02440233
KAKQ 260050Z AUTO 00000KT 10SM SCT015 BKN021 BKN028 24/23 A3013 RMK AO2
KAKQ 260041Z AUTO 00000KT 10SM BKN013 BKN019 24/23 A3013 RMK AO2 T02440233
KAKQ 252354Z AUTO 00000KT 10SM FEW022 SCT037 25/23 A3013 RMK AO2 SLP201 T02500233 10317 20250 58006
KAKQ 252254Z AUTO 00000KT 10SM FEW016 BKN043 26/23 A3013 RMK AO2 SLP203 T02560233
KAKQ 252154Z AUTO 08003KT 10SM CLR 27/22 A3014 RMK AO2 SLP206 T02720222
KAKQ 252054Z AUTO VRB04KT 10SM BKN085 27/23 A3014 RMK AO2 SLP206 T02670228 56009
KAKQ 251954Z AUTO 10007G16KT 060V120 10SM FEW031 SCT040 BKN065 28/23 A3014 RMK AO2 SLP205 T02780228
KAKQ 251854Z AUTO 00000KT 10SM FEW040 FEW055 31/21 A3015 RMK AO2 SLP209 T03060206
KAKQ 251754Z AUTO 00000KT 10SM BKN042 BKN049 31/21 A3017 RMK AO2 LTG DSNT E AND SE SLP215 T03060206 10306 20228 58021
KAKQ 251654Z AUTO 00000KT 10SM SCT036 29/21 A3019 RMK AO2 SLP222 T02940206
KAKQ 251554Z AUTO VRB03KT 10SM FEW030 FEW041 29/22 A3021 RMK AO2 SLP229 T02940217
KAKQ 251454Z AUTO 11004KT 10SM FEW022 28/22 A3023 RMK AO2 SLP236 T02830217 50000
KAKQ 251354Z AUTO 12004KT 10SM CLR 26/22 A3025 RMK AO2 SLP241 T02610222
KAKQ 251254Z AUTO 10003KT 10SM CLR 24/23 A3024 RMK AO2 SLP239 T02440228
KAKQ 251154Z AUTO 00000KT 5SM BR SCT003 23/22 A3023 RMK AO2 SLP237 60000 70002 T02280222 10228 20211 53009
KAKQ 251151Z AUTO 00000KT 3SM BR BKN003 23/22 A3023 RMK AO2
KAKQ 251144Z AUTO 00000KT 1SM BR VV002 22/22 A3023 RMK AO2 T02220217
KAKQ 251054Z AUTO 00000KT 1/4SM FG VV002 22/21 A3022 RMK AO2 SLP232 T02170206
KAKQ 251013Z AUTO 00000KT 3/4SM BR VV003 22/21 A3021 RMK AO2 T02170211
KAKQ 251004Z AUTO 00000KT 2SM BR OVC003 22/22 A3021 RMK AO2 T02220217
KAKQ 250954Z AUTO 00000KT 1/2SM FG VV004 22/21 A3021 RMK AO2 SLP228 T02170206
KAKQ 250952Z AUTO 00000KT 1/2SM FG VV004 22/21 A3021 RMK AO2
KAKQ 250915Z AUTO 00000KT 1/2SM FG VV006 22/21 A3021 RMK AO2 T02170211
KAKQ 250907Z AUTO 00000KT 1SM BR VV007 22/21 A3021 RMK AO2 T02220211
KAKQ 250852Z AUTO 00000KT 2SM BR SCT006 SCT055 22/22 A3020 RMK AO2 SLP227 60000 T02220217 58013
KAKQ 250851Z AUTO 00000KT 2 1/2SM BR SCT006 SCT055 22/22 A3020 RMK AO2
KAKQ 250834Z AUTO 00000KT 6SM BR BKN005 OVC055 23/22 A3021 RMK AO2 CIG 004V008 T02280217
KAKQ 250754Z AUTO 26003KT 7SM BKN003 OVC050 23/22 A3022 RMK AO2 SLP233 T02280222
KAKQ 250750Z AUTO 23003KT 7SM BKN003 BKN030 OVC055 23/22 A3022 RMK AO2
KAKQ 250746Z AUTO 24004KT 7SM SCT003 SCT030 OVC055 23/22 A3022 RMK AO2 T02280222
KAKQ 250654Z AUTO 00000KT 9SM FEW027 OVC047 23/22 A3023 RMK AO2 RAE04 SLP236 P0000 T02280217
KAKQ 250554Z AUTO 00000KT 9SM -RA FEW031 BKN042 OVC100 23/22 A3024 RMK AO2 RAB25 SLP240 P0000 60001 T02280217 10233 20217 58005
KAKQ 250454Z AUTO 00000KT 7SM FEW036 BKN100 22/21 A3026 RMK AO2 SLP246 T02170211 402610183
KAKQ 250354Z AUTO 00000KT 9SM CLR 22/21 A3026 RMK AO2 SLP247 T02220211
KAKQ 250254Z AUTO 09003KT 10SM SCT017 SCT065 23/22 A3026 RMK AO2 SLP246 60001 T02280217 53009
KAKQ 250242Z AUTO 09003KT 10SM BKN017 BKN065 BKN100 23/22 A3026 RMK AO2 T02330217
KAKQ 250228Z AUTO 09004KT 10SM FEW017 SCT065 BKN100 23/22 A3026 RMK AO2 T02330217
KAKQ 250154Z AUTO 09003KT 10SM SCT013 BKN018 OVC070 23/22 A3025 RMK AO2 SLP242 T02330222
KAKQ 250054Z AUTO 00000KT 10SM SCT050 BKN060 BKN090 23/22 A3024 RMK AO2 RAB00E23 SLP239 P0001 T02330217
KAKQ 242354Z AUTO 00000KT 10SM FEW021 OVC041 23/22 A3023 RMK AO2 SLP236 60001 T02330217 10261 20233 53006
KAKQ 242332Z AUTO 07003KT 10SM SCT022 BKN041 OVC048 23/22 A3022 RMK AO2 T02330217